Terminal Aerodrome Forecast
Issued by NWS

Home | Current Version | Previous Version | Graphics & Text | Print | Product List | Glossary On
Versions: 1 2 3 4 5 6 7 8 9 10 11 12 13 14 15 16 17 18 19
110
FTUS43 KICT 251739
TAFRSL
TAF
KRSL 251739Z 2518/2618 06008KT P6SM -SHRA VCTS BKN080CB
      TEMPO 2518/2522 5SM -TSRA OVC060CB
     FM252200 11006KT P6SM -SHRA VCTS OVC060CB
      TEMPO 2522/2524 5SM -TSRA OVC040CB
     FM260200 11008KT P6SM OVC080
     FM260800 17006KT P6SM BKN080
     FM261200 16005KT P6SM BKN060=

USA.gov is the U.S. government's official web portal to all federal, state and local government web resources and services.